Time;durP1;ratioP1;P1;durP2;ratioP2;P2;SDS_P1;SDS_P2;PMS_P1;PMS_P2;Temp;Humidity;BMP_temperature;BMP_pressure;BME280_temperature;BME280_humidity;BME280_pressure;Samples;Min_cycle;Max_cycle;Signal;HPM_P1;HPM_P2
2022/01/21 00:00:36;;;;;;;13.70;4.93;;;3.20;1.00;3.60;101699.00;;;;5029964;28;20485;-82
2022/01/21 00:03:05;;;;;;;10.53;4.90;;;3.20;1.00;3.60;101682.00;;;;5029525;28;21459;-82
2022/01/21 00:05:33;;;;;;;11.40;3.93;;;3.10;1.00;3.60;101671.00;;;;5025695;28;20963;-82
2022/01/21 00:08:02;;;;;;;8.93;3.90;;;3.10;1.00;3.60;101665.00;;;;5020422;28;21542;-82
2022/01/21 00:10:30;;;;;;;14.30;4.20;;;3.20;1.00;3.60;101667.00;;;;5024108;28;20485;-81
2022/01/21 00:13:01;;;;;;;10.53;3.80;;;3.10;1.00;3.50;101661.00;;;;5030507;28;20538;-82
2022/01/21 00:15:29;;;;;;;7.47;3.00;;;3.10;1.00;3.60;67053.00;;;;5039055;28;20449;-82
2022/01/21 00:17:58;;;;;;;8.13;3.50;;;3.00;1.00;3.60;67053.00;;;;5032655;28;20463;-81
2022/01/21 00:31:44;;;;;;;6.80;3.30;;;2.90;1.00;3.30;66985.00;;;;5020588;28;20456;-82
2022/01/21 00:34:12;;;;;;;8.77;3.40;;;2.80;1.00;3.20;66980.00;;;;5015162;28;20468;-81
2022/01/21 00:36:40;;;;;;;9.40;3.20;;;2.80;1.00;3.30;101670.00;;;;5018604;28;20465;-81
2022/01/21 00:39:08;;;;;;;8.20;3.40;;;2.70;1.00;217.30;158051.00;;;;5035272;28;20465;-82
2022/01/21 00:41:43;;;;;;;9.80;2.70;;;2.70;1.00;3.20;101637.00;;;;5018890;28;20488;-82
2022/01/21 00:44:13;;;;;;;13.93;3.73;;;2.60;1.00;3.20;101631.00;;;;5018208;28;21138;-82
2022/01/21 00:46:41;;;;;;;8.53;3.20;;;2.60;1.00;3.20;101670.00;;;;5018274;28;20456;-81
2022/01/21 00:49:09;;;;;;;8.90;2.30;;;2.60;1.00;3.10;101658.00;;;;5018409;28;20468;-81
2022/01/21 00:51:38;;;;;;;8.20;3.20;;;2.50;1.00;3.10;66943.00;;;;5022570;28;20461;-81
2022/01/21 00:54:06;;;;;;;11.33;3.60;;;2.60;1.00;3.10;101681.00;;;;5029812;28;20587;-82
2022/01/21 00:56:34;;;;;;;15.27;3.13;;;2.60;1.00;3.10;66927.00;;;;5028751;28;20471;-83
2022/01/21 00:59:03;;;;;;;7.43;3.17;;;2.50;1.00;3.00;101684.00;;;;5031498;28;20464;-82
2022/01/21 01:01:32;;;;;;;7.27;3.20;;;2.50;1.00;3.00;101680.00;;;;5053322;28;20491;-82
2022/01/21 01:04:04;;;;;;;7.60;2.57;;;2.40;1.00;3.00;66912.00;;;;5049216;28;20503;-82
2022/01/21 01:06:33;;;;;;;5.87;2.80;;;2.40;1.00;3.00;101677.00;;;;5027703;28;20466;-80
2022/01/21 01:09:02;;;;;;;11.50;4.03;;;2.50;1.00;3.00;101672.00;;;;5032625;28;20446;-80
2022/01/21 01:11:44;;;;;;;9.23;4.00;;;2.50;1.00;217.30;157977.00;;;;5040716;28;20491;-81
2022/01/21 01:20:07;;;;;;;13.97;4.40;;;2.50;1.00;3.00;66926.00;;;;4982483;28;21067;-82
2022/01/21 01:22:45;;;;;;;13.00;4.43;;;2.50;1.00;3.00;101717.00;;;;5006372;28;20546;-80
2022/01/21 01:28:00;;;;;;;12.00;6.60;;;2.50;1.00;3.00;101682.00;;;;5039157;28;20472;-81
2022/01/21 01:30:32;;;;;;;14.17;5.37;;;2.40;1.00;217.30;157935.00;;;;5036307;28;20481;-80
2022/01/21 01:33:06;;;;;;;12.47;4.50;;;2.40;1.00;3.00;101681.00;;;;5035703;28;20846;-80
2022/01/21 01:35:36;;;;;;;11.50;5.13;;;2.40;1.00;217.30;157951.00;;;;5050373;28;20516;-81
2022/01/21 01:38:34;;;;;;;11.97;5.57;;;2.40;1.00;217.30;157967.00;;;;5033614;28;20470;-82
2022/01/21 01:41:08;;;;;;;9.00;5.43;;;2.50;1.00;3.00;101722.00;;;;5022153;28;21085;-81
2022/01/21 01:49:29;;;;;;;7.47;4.30;;;2.50;1.00;3.10;101689.00;;;;5049669;28;20545;-83
2022/01/21 01:52:00;;;;;;;9.43;4.20;;;2.60;1.00;2.90;66934.00;;;;5025883;28;21090;-81
2022/01/21 01:54:31;;;;;;;9.83;4.53;;;2.70;1.00;3.10;101707.00;;;;5020184;28;20452;-81
2022/01/21 01:57:00;;;;;;;9.33;4.30;;;2.60;1.00;3.10;66939.00;;;;5024458;28;20520;-81
2022/01/21 01:59:28;;;;;;;8.27;4.23;;;2.50;1.00;3.00;66934.00;;;;5021306;28;20818;-81
2022/01/21 02:02:00;;;;;;;12.87;4.63;;;2.50;1.00;3.00;101692.00;;;;5022704;28;20572;-81
2022/01/21 02:04:30;;;;;;;12.77;4.90;;;2.50;1.00;2.90;66896.00;;;;5025373;28;20484;-81
2022/01/21 02:06:59;;;;;;;10.53;4.17;;;2.40;1.00;2.90;101730.00;;;;5026821;28;20547;-81
2022/01/21 02:09:28;;;;;;;7.13;4.20;;;2.40;1.00;2.80;101691.00;;;;5023398;28;20485;-81
2022/01/21 02:11:57;;;;;;;11.27;4.77;;;2.30;1.00;2.80;101668.00;;;;5028657;28;20458;-82
2022/01/21 02:14:37;;;;;;;19.00;6.10;;;2.30;1.00;2.80;66877.00;;;;5046448;28;20453;-82
2022/01/21 02:21:28;;;;;;;11.73;4.83;;;2.20;1.00;2.80;66872.00;;;;5024005;28;21392;-81
2022/01/21 02:22:57;;;;;;;9.67;5.47;;;2.30;1.00;2.70;66863.00;;;;5034627;28;20486;-81
2022/01/21 02:25:26;;;;;;;10.20;4.47;;;2.10;1.00;2.80;66863.00;;;;5037286;28;20466;-81
2022/01/21 02:27:59;;;;;;;11.60;6.20;;;2.10;1.00;2.80;101714.00;;;;5057983;28;20465;-81
2022/01/21 02:30:32;;;;;;;11.00;5.83;;;2.20;1.00;217.30;157854.00;;;;5038994;28;20453;-81
2022/01/21 02:33:02;;;;;;;9.40;6.07;;;2.20;1.00;2.70;101711.00;;;;5035864;28;20809;-81
2022/01/21 02:35:30;;;;;;;13.43;5.90;;;2.20;1.00;2.80;101683.00;;;;5036909;28;20462;-82
2022/01/21 02:38:01;;;;;;;8.70;5.30;;;2.20;1.00;2.70;101685.00;;;;5031393;28;20455;-81
2022/01/21 02:40:29;;;;;;;16.63;6.40;;;2.40;1.00;2.80;101686.00;;;;5025032;28;20457;-81
2022/01/21 02:42:57;;;;;;;10.23;5.63;;;2.20;1.00;2.80;101691.00;;;;5044706;28;20508;-82
2022/01/21 02:45:26;;;;;;;11.83;6.30;;;2.30;1.00;2.80;101687.00;;;;5045644;28;20465;-83
2022/01/21 02:47:55;;;;;;;11.03;5.70;;;2.30;1.00;2.80;101669.00;;;;5026532;28;20460;-82
2022/01/21 02:50:23;;;;;;;12.13;6.10;;;2.30;1.00;2.80;66888.00;;;;5030619;28;20556;-81
2022/01/21 02:53:07;;;;;;;11.20;6.37;;;2.50;1.00;2.90;66903.00;;;;5050465;28;20484;-80
2022/01/21 02:55:39;;;;;;;13.90;6.60;;;2.40;1.00;3.00;101674.00;;;;5047240;28;20510;-81
2022/01/21 02:58:07;;;;;;;15.07;6.70;;;2.50;1.00;3.10;101674.00;;;;5049366;28;20460;-82
2022/01/21 03:00:37;;;;;;;13.03;7.50;;;2.50;1.00;3.10;101674.00;;;;5030550;28;20528;-80
2022/01/21 03:03:07;;;;;;;20.67;7.83;;;2.60;1.00;3.20;101676.00;;;;5028239;28;20587;-82
2022/01/21 03:05:38;;;;;;;11.27;6.27;;;2.70;1.00;3.20;101666.00;;;;5033319;28;20449;-81
2022/01/21 03:08:07;;;;;;;9.97;6.07;;;2.70;1.00;3.20;66966.00;;;;5037545;28;20457;-81
2022/01/21 03:10:36;;;;;;;15.53;6.00;;;2.70;1.00;3.20;101702.00;;;;5045984;28;20994;-81
2022/01/21 03:13:06;;;;;;;13.63;6.77;;;2.80;1.00;3.30;101681.00;;;;5033304;28;20541;-82
2022/01/21 03:15:34;;;;;;;16.70;6.67;;;2.80;1.00;3.40;101685.00;;;;5031391;28;20543;-82
2022/01/21 03:18:03;;;;;;;13.17;6.67;;;2.90;1.00;3.40;67011.00;;;;5025428;28;20457;-81
2022/01/21 03:20:32;;;;;;;9.60;6.57;;;2.90;1.00;3.50;67016.00;;;;5022628;28;20548;-80
2022/01/21 03:23:01;;;;;;;11.83;6.00;;;2.90;1.00;217.30;158164.00;;;;5022611;28;20497;-80
2022/01/21 03:25:30;;;;;;;10.17;5.50;;;3.00;1.00;3.50;67020.00;;;;5044438;28;20468;-81
2022/01/21 03:27:58;;;;;;;9.73;5.57;;;3.00;1.00;52.70;158164.00;;;;5023428;28;20496;-81
2022/01/21 03:30:31;;;;;;;19.93;7.00;;;3.00;1.00;3.40;67020.00;;;;5046128;28;20477;-81
2022/01/21 03:33:06;;;;;;;12.20;6.20;;;3.00;1.00;52.70;158138.00;;;;5024634;28;20511;-82
2022/01/21 03:35:36;;;;;;;11.40;6.70;;;2.90;1.00;3.40;101713.00;;;;5024143;28;20463;-81
2022/01/21 03:38:05;;;;;;;10.63;6.33;;;2.90;1.00;217.30;158108.00;;;;5038489;28;20464;-81
2022/01/21 03:40:33;;;;;;;14.73;6.63;;;2.80;1.00;3.20;101728.00;;;;5045724;28;20457;-82
2022/01/21 03:43:02;;;;;;;15.63;7.50;;;2.80;1.00;3.30;101712.00;;;;5023369;28;20473;-81
2022/01/21 03:45:33;;;;;;;13.20;6.27;;;2.70;1.00;3.40;101708.00;;;;5033319;28;20458;-81
2022/01/21 03:48:01;;;;;;;13.10;6.67;;;2.90;1.00;3.40;66998.00;;;;5031769;28;20484;-82
2022/01/21 03:50:32;;;;;;;11.90;6.90;;;2.90;1.00;3.40;101723.00;;;;5030225;28;20476;-82
2022/01/21 03:53:03;;;;;;;10.67;6.67;;;2.90;1.00;3.50;101724.00;;;;5037389;28;20481;-81
2022/01/21 03:55:34;;;;;;;14.30;7.20;;;3.00;1.00;3.50;101724.00;;;;5024788;28;20495;-82
2022/01/21 03:58:07;;;;;;;12.43;6.97;;;3.00;1.00;3.50;101714.00;;;;5040921;28;20469;-81
2022/01/21 04:00:44;;;;;;;13.83;7.10;;;3.00;1.00;3.50;101717.00;;;;5023838;28;20472;-81
2022/01/21 04:03:13;;;;;;;10.80;7.20;;;3.00;1.00;3.50;101726.00;;;;5038871;28;20485;-81
2022/01/21 04:05:42;;;;;;;12.50;8.03;;;3.00;1.00;3.50;101724.00;;;;5023317;28;20458;-81
2022/01/21 04:08:12;;;;;;;11.77;6.97;;;3.00;1.00;3.60;101728.00;;;;5032073;28;20495;-83
2022/01/21 04:10:47;;;;;;;12.00;7.27;;;3.00;1.00;217.30;158170.00;;;;5032153;28;20989;-81
2022/01/21 04:13:20;;;;;;;14.93;8.60;;;3.00;1.00;3.50;67016.00;;;;5022790;28;20511;-82
2022/01/21 04:15:55;;;;;;;17.50;7.57;;;3.00;1.00;3.40;67025.00;;;;5022580;28;20460;-82
2022/01/21 04:18:24;;;;;;;17.37;7.90;;;3.00;1.00;3.50;67025.00;;;;5032621;28;20461;-82
2022/01/21 04:20:58;;;;;;;16.13;8.00;;;3.10;1.00;3.50;101721.00;;;;5031074;28;20559;-82
2022/01/21 04:23:28;;;;;;;14.23;7.43;;;3.00;1.00;3.50;67031.00;;;;5015932;28;20489;-81
2022/01/21 04:25:57;;;;;;;13.20;7.90;;;3.00;1.00;3.50;101751.00;;;;5015746;28;20471;-81
2022/01/21 04:28:25;;;;;;;14.30;7.97;;;3.00;1.00;3.50;67022.00;;;;5042378;28;20524;-81
2022/01/21 04:30:56;;;;;;;15.73;7.80;;;3.00;1.00;217.30;158132.00;;;;5044116;28;20463;-82
2022/01/21 04:33:31;;;;;;;13.97;9.70;;;3.00;1.00;3.40;101760.00;;;;5020816;28;20487;-81
2022/01/21 04:36:02;;;;;;;19.73;8.50;;;2.90;1.00;3.40;101750.00;;;;5024195;28;20456;-81
2022/01/21 04:38:32;;;;;;;12.47;7.63;;;2.80;1.00;3.40;67001.00;;;;5029477;28;20457;-82
2022/01/21 04:41:17;;;;;;;15.63;7.63;;;2.80;1.00;3.40;101751.00;;;;5021672;28;20966;-82
2022/01/21 04:49:26;;;;;;;17.73;8.10;;;2.80;1.00;3.30;101773.00;;;;5012409;28;20538;-81
2022/01/21 04:52:02;;;;;;;19.53;9.13;;;2.70;1.00;3.30;101770.00;;;;5042847;28;20473;-80
2022/01/21 04:54:54;;;;;;;14.30;8.10;;;2.70;1.00;3.20;101776.00;;;;5020828;28;20464;-81
2022/01/21 04:57:25;;;;;;;16.20;7.77;;;2.60;1.00;3.10;101772.00;;;;5024174;28;20457;-81
2022/01/21 04:59:53;;;;;;;13.17;8.30;;;2.60;1.00;3.10;66934.00;;;;5023592;28;20539;-81
2022/01/21 05:02:26;;;;;;;11.73;8.13;;;2.60;1.00;3.10;101779.00;;;;5023551;28;21752;-81
2022/01/21 05:04:55;;;;;;;13.40;7.80;;;2.50;1.00;3.10;101777.00;;;;5042583;28;20452;-81
2022/01/21 05:07:25;;;;;;;19.67;7.80;;;2.50;1.00;3.10;101789.00;;;;5021976;28;20458;-80
2022/01/21 05:09:54;;;;;;;14.77;7.87;;;2.50;1.00;3.10;101772.00;;;;5022424;28;20444;-81
2022/01/21 05:12:25;;;;;;;14.80;8.50;;;2.50;1.00;52.70;158009.00;;;;5023042;28;20478;-81
2022/01/21 05:15:08;;;;;;;16.37;8.17;;;2.80;1.00;3.20;101784.00;;;;5027746;28;20456;-80
2022/01/21 05:17:44;;;;;;;15.87;8.40;;;2.60;1.00;217.30;158060.00;;;;5026798;28;20537;-82
2022/01/21 05:20:14;;;;;;;16.43;7.97;;;2.60;1.00;3.20;66955.00;;;;5044608;28;20905;-82
2022/01/21 05:23:01;;;;;;;13.00;8.37;;;2.50;1.00;217.30;158029.00;;;;5023665;28;21029;-82
2022/01/21 05:25:29;;;;;;;11.77;8.17;;;2.60;1.00;217.30;158086.00;;;;5021839;28;20449;-82
2022/01/21 05:27:59;;;;;;;14.40;7.00;;;2.40;1.00;3.30;66980.00;;;;5023789;28;20962;-81
2022/01/21 05:30:30;;;;;;;12.03;7.97;;;2.70;1.00;3.40;66998.00;;;;5024875;28;20476;-81
2022/01/21 05:33:19;;;;;;;16.57;8.50;;;2.80;1.00;3.40;101775.00;;;;5037919;28;20481;-82
2022/01/21 05:35:56;;;;;;;13.57;8.10;;;2.90;1.00;217.30;158170.00;;;;5042623;28;20461;-82
2022/01/21 05:38:59;;;;;;;14.30;8.10;;;2.90;1.00;217.30;158193.00;;;;5067641;28;20449;-82
2022/01/21 05:41:49;;;;;;;14.13;8.47;;;3.00;1.00;3.60;101796.00;;;;5035440;28;20484;-81
2022/01/21 05:47:47;;;;;;;25.63;8.80;;;3.30;1.00;3.70;101778.00;;;;5036815;28;20457;-82
2022/01/21 05:50:45;;;;;;;12.80;9.57;;;3.00;1.00;3.60;101769.00;;;;5023310;28;20551;-82
2022/01/21 05:53:33;;;;;;;16.17;8.20;;;3.00;1.00;3.50;101773.00;;;;5033810;28;20492;-82
2022/01/21 05:56:24;;;;;;;14.73;9.50;;;2.90;1.00;3.50;101767.00;;;;5042628;28;20519;-81
2022/01/21 05:59:03;;;;;;;10.90;7.80;;;2.90;1.00;217.30;158174.00;;;;5021071;28;20478;-82
2022/01/21 06:01:33;;;;;;;14.83;8.80;;;2.90;1.00;3.60;101773.00;;;;5021695;28;20468;-82
2022/01/21 06:04:03;;;;;;;13.07;9.20;;;2.90;1.00;3.60;101775.00;;;;5020650;28;20539;-81
2022/01/21 06:06:33;;;;;;;16.93;9.07;;;3.00;1.00;3.70;67067.00;;;;5036861;28;20493;-82
2022/01/21 06:09:02;;;;;;;13.03;8.20;;;3.10;1.00;3.70;101788.00;;;;5019749;28;21297;-81
2022/01/21 06:11:30;;;;;;;13.93;8.80;;;3.20;1.00;3.80;101804.00;;;;5024156;28;20950;-81
2022/01/21 06:14:00;;;;;;;15.00;9.23;;;3.20;1.00;3.90;101791.00;;;;5022338;28;20480;-81
2022/01/21 06:16:29;;;;;;;15.33;8.70;;;3.30;1.00;3.90;101782.00;;;;5020150;28;20454;-82
2022/01/21 06:18:57;;;;;;;16.23;9.10;;;3.30;1.00;52.70;158350.00;;;;5023268;28;20527;-81
2022/01/21 06:21:25;;;;;;;14.00;8.73;;;3.30;1.00;3.90;101807.00;;;;5024954;28;20548;-82
2022/01/21 06:23:55;;;;;;;16.93;9.73;;;3.40;1.00;3.90;67139.00;;;;5025557;28;20487;-82
2022/01/21 06:26:23;;;;;;;16.20;10.03;;;3.40;1.00;3.90;101817.00;;;;5027181;28;20468;-82
2022/01/21 06:28:52;;;;;;;18.27;9.70;;;3.40;1.00;3.90;67118.00;;;;5034460;28;20458;-81
2022/01/21 06:31:20;;;;;;;13.43;9.60;;;3.40;1.00;3.90;101818.00;;;;5029584;28;20464;-82
2022/01/21 06:33:48;;;;;;;17.77;10.07;;;3.40;1.00;3.90;101806.00;;;;5046487;28;20470;-82
2022/01/21 06:36:16;;;;;;;15.57;9.10;;;3.40;1.00;3.90;67123.00;;;;5049134;28;20540;-81
2022/01/21 06:38:45;;;;;;;23.10;11.57;;;3.40;1.00;4.00;101819.00;;;;5046411;28;20462;-80
2022/01/21 06:41:15;;;;;;;15.50;10.00;;;3.50;1.00;4.00;67143.00;;;;5051539;28;20532;-81
2022/01/21 06:43:43;;;;;;;18.37;10.80;;;3.50;1.00;4.00;101834.00;;;;5039124;28;20998;-81
2022/01/21 06:46:12;;;;;;;16.47;11.07;;;3.50;1.00;4.10;101826.00;;;;5026325;28;20536;-82
2022/01/21 06:48:41;;;;;;;24.33;11.20;;;3.50;1.00;52.70;158443.00;;;;5025778;28;20881;-82
2022/01/21 06:51:09;;;;;;;15.40;10.63;;;3.60;1.00;4.20;67179.00;;;;5020685;28;20918;-80
2022/01/21 06:53:38;;;;;;;16.03;10.60;;;3.60;1.00;4.20;67176.00;;;;5017527;28;20481;-80
2022/01/21 06:56:06;;;;;;;16.03;10.80;;;3.70;1.00;4.10;101837.00;;;;5019305;28;20892;-81
2022/01/21 06:58:36;;;;;;;19.60;11.60;;;3.70;1.00;4.20;67181.00;;;;5021683;28;20474;-81
2022/01/21 07:01:04;;;;;;;18.50;10.40;;;3.70;1.00;4.20;101825.00;;;;5020954;28;20448;-81
2022/01/21 07:03:33;;;;;;;19.17;10.80;;;3.70;1.00;4.20;101827.00;;;;5031698;28;20481;-81
2022/01/21 07:06:01;;;;;;;19.83;11.77;;;3.70;1.00;4.20;101844.00;;;;5022864;28;20485;-82
2022/01/21 07:08:33;;;;;;;21.37;11.10;;;3.70;1.00;4.20;101783.00;;;;5022097;28;20492;-81
2022/01/21 07:11:01;;;;;;;15.20;10.47;;;3.70;1.00;4.20;67176.00;;;;5041733;28;20459;-81
2022/01/21 07:13:30;;;;;;;20.10;10.57;;;3.70;1.00;4.20;67185.00;;;;5025906;28;20480;-81
2022/01/21 07:15:59;;;;;;;23.03;12.20;;;3.70;1.00;4.20;101837.00;;;;5031472;28;20461;-80
2022/01/21 07:18:30;;;;;;;21.77;11.33;;;3.70;1.00;217.30;158508.00;;;;5035042;28;20445;-81
2022/01/21 07:20:59;;;;;;;15.47;10.47;;;3.80;1.00;4.30;67212.00;;;;5034264;28;20532;-81
2022/01/21 07:23:27;;;;;;;21.10;10.07;;;3.80;1.00;4.30;67210.00;;;;5032582;28;20478;-80
2022/01/21 07:25:57;;;;;;;13.80;10.30;;;3.80;1.00;4.30;67202.00;;;;5023187;28;20453;-79
2022/01/21 07:28:25;;;;;;;14.63;10.13;;;3.80;1.00;4.30;67210.00;;;;5030502;28;20472;-80
2022/01/21 07:30:54;;;;;;;15.57;10.10;;;3.80;1.00;4.30;67197.00;;;;5044271;28;20458;-81
2022/01/21 07:33:23;;;;;;;16.53;9.70;;;3.80;1.00;4.30;101841.00;;;;5023058;28;20580;-80
2022/01/21 07:35:52;;;;;;;21.30;11.10;;;3.80;1.00;217.30;158508.00;;;;5023060;28;20460;-80
2022/01/21 07:38:20;;;;;;;18.03;10.60;;;3.80;1.00;4.30;101849.00;;;;5020413;28;20457;-81
2022/01/21 07:40:49;;;;;;;15.30;10.70;;;3.80;1.00;4.30;67203.00;;;;5021198;28;20483;-81
2022/01/21 07:43:17;;;;;;;19.30;10.97;;;3.70;1.00;4.40;67223.00;;;;5028820;28;20481;-81
2022/01/21 07:45:45;;;;;;;13.73;9.60;;;3.80;1.00;4.40;101875.00;;;;5032551;28;20462;-81
2022/01/21 07:48:14;;;;;;;19.30;11.07;;;3.90;1.00;4.40;101873.00;;;;5028974;28;20481;-81
2022/01/21 07:50:43;;;;;;;20.37;11.90;;;3.90;1.00;4.50;101862.00;;;;5034632;28;20468;-82
2022/01/21 07:53:11;;;;;;;21.43;12.03;;;4.00;1.00;4.50;101875.00;;;;5025950;28;20484;-81
2022/01/21 07:55:40;;;;;;;18.90;12.13;;;4.00;1.00;4.50;101855.00;;;;5019976;28;20589;-81
2022/01/21 07:58:08;;;;;;;16.40;10.80;;;4.00;1.00;4.50;101872.00;;;;5021099;28;20452;-81
2022/01/21 08:00:36;;;;;;;24.37;13.33;;;4.10;1.00;4.60;101889.00;;;;5018943;28;20476;-82
2022/01/21 08:03:05;;;;;;;22.90;11.67;;;4.10;1.00;4.60;67275.00;;;;5018444;28;20522;-80
2022/01/21 08:05:34;;;;;;;15.53;10.87;;;4.30;1.00;217.30;158675.00;;;;5021546;28;20497;-81
2022/01/21 08:08:05;;;;;;;19.70;12.10;;;4.20;1.00;4.70;67281.00;;;;5044388;28;20461;-80
2022/01/21 08:10:33;;;;;;;18.53;10.60;;;4.10;1.00;4.60;67280.00;;;;5025844;28;20470;-80
2022/01/21 08:13:02;;;;;;;18.10;11.10;;;4.10;1.00;4.70;101873.00;;;;5028519;28;20477;-80
2022/01/21 08:15:31;;;;;;;20.27;11.40;;;4.10;1.00;4.70;101870.00;;;;5020624;28;20563;-80
2022/01/21 08:17:59;;;;;;;19.23;12.83;;;4.20;1.00;4.70;101859.00;;;;5023114;28;20519;-80
2022/01/21 08:20:29;;;;;;;19.77;12.17;;;4.20;1.00;4.70;101859.00;;;;5024482;28;21329;-81
2022/01/21 08:22:57;;;;;;;15.53;10.80;;;4.20;1.00;4.80;101879.00;;;;5022037;28;20487;-81
2022/01/21 08:25:27;;;;;;;21.63;11.40;;;4.30;1.00;217.30;158721.00;;;;5037686;28;20491;-81
2022/01/21 08:27:55;;;;;;;18.60;10.73;;;4.30;1.00;4.80;67311.00;;;;5024817;28;20449;-80
2022/01/21 08:30:24;;;;;;;18.93;11.57;;;4.30;1.00;217.30;158687.00;;;;5020769;28;20453;-79
2022/01/21 08:32:52;;;;;;;17.10;10.07;;;4.20;1.00;4.70;67285.00;;;;5028821;28;20568;-79
2022/01/21 08:35:20;;;;;;;17.33;11.60;;;4.20;1.00;4.60;67268.00;;;;5024129;28;20465;-80
2022/01/21 08:37:52;;;;;;;22.03;12.90;;;4.10;1.00;4.60;101870.00;;;;5026484;28;20465;-80
2022/01/21 08:40:21;;;;;;;23.20;12.60;;;4.10;1.00;4.70;101873.00;;;;5027266;28;20469;-81
2022/01/21 08:42:51;;;;;;;22.27;13.77;;;4.10;1.00;4.80;101864.00;;;;5019037;28;20480;-82
2022/01/21 08:45:20;;;;;;;18.60;11.60;;;4.30;1.00;5.00;101871.00;;;;5019303;28;20485;-81
2022/01/21 08:47:49;;;;;;;23.33;12.33;;;4.40;1.00;5.20;67407.00;;;;5021637;28;20476;-80
2022/01/21 08:50:20;;;;;;;18.97;11.37;;;4.60;1.00;5.30;67417.00;;;;5020362;28;21090;-81
2022/01/21 08:52:55;;;;;;;15.03;10.63;;;4.80;1.00;5.20;101869.00;;;;5021067;28;20495;-81
2022/01/21 08:55:23;;;;;;;20.57;9.50;;;4.80;1.00;5.30;101872.00;;;;5020351;28;20475;-80
2022/01/21 08:57:53;;;;;;;18.40;10.70;;;4.80;1.00;5.30;67436.00;;;;5020580;28;20544;-80
2022/01/21 09:00:23;;;;;;;15.67;7.63;;;4.90;1.00;5.30;67441.00;;;;5019856;28;20464;-81
2022/01/21 09:02:51;;;;;;;18.93;10.40;;;4.90;1.00;5.30;67438.00;;;;5021689;28;20559;-81
2022/01/21 09:05:20;;;;;;;18.73;8.93;;;4.90;1.00;5.30;67422.00;;;;5018288;28;20512;-81
2022/01/21 09:07:48;;;;;;;18.80;10.60;;;4.80;1.00;-80.20;158982.00;;;;5018548;28;20980;-82
2022/01/21 09:10:17;;;;;;;12.87;10.33;;;4.90;1.00;5.50;67479.00;;;;5014813;28;20464;-82
2022/01/21 09:12:45;;;;;;;15.00;9.07;;;5.10;1.00;5.60;101887.00;;;;5018112;28;20494;-83
2022/01/21 09:15:15;;;;;;;14.70;9.40;;;5.10;1.00;5.60;67506.00;;;;5019848;28;20463;-81
2022/01/21 09:17:43;;;;;;;17.43;10.20;;;5.20;1.00;5.60;67509.00;;;;5045905;28;20502;-81
2022/01/21 09:20:12;;;;;;;13.67;9.30;;;5.20;1.00;5.60;67487.00;;;;5021441;28;20539;-81
2022/01/21 09:22:40;;;;;;;16.37;9.07;;;5.40;1.00;5.60;101894.00;;;;5045777;28;21005;-81
2022/01/21 09:25:09;;;;;;;14.73;9.87;;;5.20;1.00;5.60;101892.00;;;;5040186;28;20479;-82
2022/01/21 09:27:41;;;;;;;15.77;8.70;;;5.20;1.00;5.60;101882.00;;;;5031956;28;20543;-82
2022/01/21 09:30:11;;;;;;;18.40;10.27;;;5.20;1.00;5.60;67507.00;;;;5026434;28;20449;-81
2022/01/21 09:32:41;;;;;;;13.07;9.50;;;5.20;1.00;5.70;101860.00;;;;5027740;28;20494;-80
2022/01/21 09:35:10;;;;;;;16.33;9.93;;;5.30;1.00;5.80;67539.00;;;;5026847;28;21377;-80
2022/01/21 09:37:39;;;;;;;13.77;9.40;;;5.40;1.00;5.90;101872.00;;;;5037395;28;20480;-81
2022/01/21 09:40:09;;;;;;;12.50;9.37;;;5.40;1.00;5.90;67568.00;;;;5047102;28;20476;-81
2022/01/21 09:42:39;;;;;;;14.80;9.37;;;5.50;1.00;5.90;67556.00;;;;5042839;28;20484;-81
2022/01/21 09:45:14;;;;;;;17.77;9.20;;;5.50;1.00;5.80;101873.00;;;;5058630;28;20480;-80
2022/01/21 09:47:49;;;;;;;15.53;8.80;;;5.40;1.00;5.80;67539.00;;;;5032868;28;20464;-81
2022/01/21 09:50:20;;;;;;;19.00;11.67;;;5.40;1.00;5.80;67533.00;;;;5029892;28;20923;-81
2022/01/21 09:52:51;;;;;;;13.97;9.50;;;5.30;1.00;5.80;67549.00;;;;5033390;28;20505;-81
2022/01/21 09:55:22;;;;;;;14.60;8.70;;;5.40;1.00;5.90;67549.00;;;;5028149;28;20869;-80
2022/01/21 09:57:53;;;;;;;18.10;10.90;;;5.40;1.00;5.90;67562.00;;;;5043965;28;20541;-81
2022/01/21 10:00:24;;;;;;;16.00;11.33;;;5.50;1.00;5.90;101882.00;;;;5022232;28;20454;-81
2022/01/21 10:02:56;;;;;;;19.43;11.33;;;5.50;1.00;6.00;101899.00;;;;5021583;28;20492;-78
2022/01/21 10:05:25;;;;;;;18.23;11.27;;;5.50;1.00;6.00;101869.00;;;;5025087;28;20472;-82
2022/01/21 10:07:54;;;;;;;17.30;9.70;;;5.60;1.00;6.00;67592.00;;;;5026008;28;20545;-81
2022/01/21 10:10:22;;;;;;;20.40;10.83;;;5.70;1.00;6.10;67608.00;;;;5023639;28;20534;-81
2022/01/21 10:12:51;;;;;;;17.60;10.37;;;5.70;1.00;6.00;101905.00;;;;5026811;28;20556;-82
2022/01/21 10:15:19;;;;;;;19.53;9.80;;;5.70;1.00;6.10;67603.00;;;;5027232;28;20465;-80
2022/01/21 10:18:07;;;;;;;19.40;10.50;;;5.70;1.00;6.20;101903.00;;;;5041401;28;20499;-82
2022/01/21 10:20:39;;;;;;;16.10;9.80;;;5.70;1.00;52.70;159353.00;;;;5040842;28;20948;-81
2022/01/21 10:23:11;;;;;;;17.20;10.20;;;5.80;1.00;6.30;67651.00;;;;5028678;28;20663;-81
2022/01/21 10:25:40;;;;;;;14.47;9.67;;;5.80;1.00;6.40;101899.00;;;;5023914;28;20542;-81
2022/01/21 10:28:11;;;;;;;15.10;9.27;;;5.90;1.00;217.30;159443.00;;;;5027242;28;20527;-80
2022/01/21 10:30:42;;;;;;;12.43;9.60;;;5.90;1.00;6.30;101891.00;;;;5053850;28;20976;-81
2022/01/21 10:33:24;;;;;;;14.87;10.10;;;5.90;1.00;6.10;101906.00;;;;5025169;28;20578;-82
2022/01/21 10:36:08;;;;;;;14.37;9.73;;;5.60;1.00;6.00;101914.00;;;;5028265;28;20461;-80
2022/01/21 10:38:44;;;;;;;15.13;11.20;;;5.60;1.00;5.90;101897.00;;;;5033769;28;20470;-81
2022/01/21 10:41:14;;;;;;;16.53;10.00;;;5.60;1.00;6.00;67578.00;;;;5030464;28;20457;-81
2022/01/21 10:43:43;;;;;;;10.57;7.90;;;5.50;1.00;52.70;159274.00;;;;5047193;28;20472;-81
2022/01/21 10:46:16;;;;;;;14.47;10.23;;;5.60;1.00;6.10;101886.00;;;;5035244;28;20789;-80
2022/01/21 10:49:02;;;;;;;13.83;8.97;;;5.70;1.00;6.40;101880.00;;;;5037103;28;20456;-81
2022/01/21 10:51:33;;;;;;;15.40;10.20;;;5.90;1.00;6.60;67715.00;;;;5032468;28;20488;-80
2022/01/21 10:54:17;;;;;;;12.10;8.47;;;6.20;1.00;6.50;101841.00;;;;5027740;28;20584;-80
2022/01/21 10:57:06;;;;;;;13.47;8.50;;;6.30;1.00;6.70;101917.00;;;;5029229;28;20565;-81
2022/01/21 10:59:58;;;;;;;18.40;8.80;;;6.30;1.00;6.80;101919.00;;;;5031177;28;20559;-80
2022/01/21 11:02:36;;;;;;;13.77;7.90;;;6.50;1.00;6.90;67791.00;;;;5029383;28;20511;-80
2022/01/21 11:05:12;;;;;;;10.90;8.03;;;6.60;1.00;6.80;101917.00;;;;5031263;28;20468;-81
2022/01/21 11:07:50;;;;;;;11.70;6.93;;;6.50;1.00;6.60;101904.00;;;;5034253;28;20962;-82
2022/01/21 11:10:46;;;;;;;10.40;6.63;;;6.30;1.00;6.40;101903.00;;;;5028131;28;20465;-80
2022/01/21 11:13:40;;;;;;;10.30;6.27;;;6.00;1.00;6.40;67690.00;;;;5032781;28;20473;-80
2022/01/21 11:16:16;;;;;;;10.90;6.87;;;6.00;1.00;217.30;159540.00;;;;5051105;28;20457;-80
2022/01/21 11:19:11;;;;;;;13.83;8.00;;;6.20;1.00;6.90;67782.00;;;;5028382;28;21324;-80
2022/01/21 11:21:48;;;;;;;8.00;6.27;;;6.50;1.00;217.30;159744.00;;;;5030390;28;20456;-80
2022/01/21 11:24:21;;;;;;;11.93;7.10;;;6.70;1.00;7.40;67888.00;;;;5032682;28;20477;-81
2022/01/21 11:27:14;;;;;;;9.53;7.27;;;7.00;1.00;7.50;101795.00;;;;5028876;28;20505;-81
2022/01/21 11:29:44;;;;;;;13.50;7.30;;;7.10;1.00;7.30;101830.00;;;;5022000;28;20544;-80
2022/01/21 11:32:14;;;;;;;10.77;7.50;;;7.00;1.00;217.30;159744.00;;;;5019052;28;20560;-81
2022/01/21 11:34:43;;;;;;;12.00;7.90;;;6.80;1.00;7.00;67814.00;;;;5018437;28;20461;-81
2022/01/21 11:37:14;;;;;;;11.17;8.40;;;6.70;1.00;7.20;101975.00;;;;5025127;28;20488;-81
2022/01/21 11:39:43;;;;;;;14.37;6.90;;;6.80;1.00;7.20;67850.00;;;;5032805;28;20528;-80
2022/01/21 11:42:11;;;;;;;9.83;8.63;;;6.80;1.00;7.20;67856.00;;;;5029912;28;20465;-80
2022/01/21 11:44:51;;;;;;;12.57;8.43;;;6.80;1.00;7.50;101987.00;;;;5020928;28;20545;-81
2022/01/21 11:47:48;;;;;;;18.33;8.63;;;7.00;1.00;7.20;101999.00;;;;5022907;28;20469;-81
2022/01/21 11:50:20;;;;;;;11.67;8.23;;;7.00;1.00;7.20;101992.00;;;;5023830;28;20453;-80
2022/01/21 11:52:50;;;;;;;11.83;9.57;;;6.80;1.00;7.00;67814.00;;;;5017436;28;20489;-80
2022/01/21 11:55:33;;;;;;;10.83;7.90;;;6.80;1.00;6.90;101999.00;;;;5023366;28;20484;-81
2022/01/21 11:58:14;;;;;;;14.37;8.00;;;6.50;1.00;6.80;101983.00;;;;5020369;28;20583;-81
2022/01/21 12:00:44;;;;;;;12.67;7.00;;;6.30;1.00;217.30;159593.00;;;;5021483;28;20464;-81